This is the latest recevied weather packets stored in our database for station/object SP9KB-13. If no packets are shown the sender has not sent any weather packets the latest 10 day(s).
| Time | Temp. | Humidity | Pressure | Rain* | Wind** | Luminosity | Snow |
|---|---|---|---|---|---|---|---|
| 1778145400 | 21.11° C | 59% | 992.8 hPa | 0 mm | - | - | - |
| 1778145100 | 21.11° C | 58% | 992.5 hPa | 0 mm | - | - | - |
| 1778144799 | 21.11° C | 60% | 992.6 hPa | 0 mm | - | - | - |
| 1778144498 | 21.11° C | 60% | 992.5 hPa | 0 mm | - | - | - |
| 1778144198 | 21.11° C | 60% | 992.6 hPa | 0 mm | - | - | - |
| 1778143897 | 20.56° C | 63% | 992.5 hPa | 0 mm | - | - | - |
| 1778143597 | 20° C | 63% | 992.5 hPa | 0 mm | - | - | - |
| 1778143296 | 20.56° C | 61% | 992.5 hPa | 0 mm | - | - | - |
| 1778142996 | 20.56° C | 62% | 992.5 hPa | 0 mm | - | - | - |
| 1778142695 | 19.44° C | 65% | 992.4 hPa | 0 mm | - | - | - |
| 1778142394 | 18.89° C | 66% | 992.4 hPa | 0 mm | - | - | - |
| 1778142094 | 18.33° C | 67% | 992.4 hPa | 0 mm | - | - | - |
| 1778141793 | 18.89° C | 66% | 992.4 hPa | 0 mm | - | - | - |
| 1778141493 | 19.44° C | 64% | 992.3 hPa | 0 mm | - | - | - |
| 1778141186 | 19.44° C | 64% | 992.3 hPa | 0 mm | - | - | - |
| 1778140885 | 18.33° C | 68% | 992.5 hPa | 0 mm | - | - | - |
| 1778140585 | 18.33° C | 67% | 992.3 hPa | 0 mm | - | - | - |
| 1778140284 | 18.33° C | 67% | 992.3 hPa | 0 mm | - | - | - |
| 1778139984 | 17.78° C | 68% | 992.3 hPa | 0 mm | - | - | - |
| 1778139683 | 18.33° C | 68% | 992.4 hPa | 0 mm | - | - | - |
| 1778139383 | 17.78° C | 70% | 992.5 hPa | 0 mm | - | - | - |
| 1778139082 | 17.78° C | 70% | 992.5 hPa | 0 mm | - | - | - |
| 1778138781 | 17.78° C | 71% | 992.4 hPa | 0 mm | - | - | - |
| 1778138481 | 17.78° C | 71% | 992.3 hPa | 0 mm | - | - | - |
| 1778138180 | 17.78° C | 71% | 992.3 hPa | 0 mm | - | - | - |
* Rain latest hour (hover to see other rain measurements)
** Current wind speed in m/s (hover to see current wind gust speed)